createdAt,value
2018-11-26T00:00:28.258Z,1008.92
2018-11-26T00:01:28.330Z,1008.90
2018-11-26T00:02:28.176Z,1008.89
2018-11-26T00:03:28.623Z,1008.94
2018-11-26T00:04:28.471Z,1008.92
2018-11-26T00:05:28.266Z,1008.89
2018-11-26T00:06:28.200Z,1008.95
2018-11-26T00:07:28.525Z,1008.98
2018-11-26T00:08:28.429Z,1008.94
2018-11-26T00:09:28.409Z,1008.97
2018-11-26T00:10:28.218Z,1008.95
2018-11-26T00:11:28.876Z,1008.99
2018-11-26T00:12:29.579Z,1008.97
2018-11-26T00:13:35.687Z,1008.98
2018-11-26T00:14:28.304Z,1008.96
2018-11-26T00:15:28.296Z,1008.97
2018-11-26T00:16:28.372Z,1008.90
2018-11-26T00:17:28.255Z,1008.88
2018-11-26T00:18:28.366Z,1008.89
2018-11-26T00:19:28.443Z,1008.84
2018-11-26T00:20:30.652Z,1008.92
2018-11-26T00:21:29.651Z,1008.87
2018-11-26T00:22:28.279Z,1008.93
2018-11-26T00:23:28.236Z,1008.91
2018-11-26T00:24:28.313Z,1008.88
2018-11-26T00:25:29.310Z,1008.86
2018-11-26T00:26:28.299Z,1008.87
2018-11-26T00:27:28.572Z,1008.88
2018-11-26T00:28:28.337Z,1008.88
2018-11-26T00:29:29.035Z,1008.89
2018-11-26T00:30:28.468Z,1008.89
2018-11-26T00:31:29.194Z,1008.86
2018-11-26T00:32:29.173Z,1008.88
2018-11-26T00:33:28.235Z,1008.89
2018-11-26T00:34:28.568Z,1008.88
2018-11-26T00:35:28.315Z,1009.00
2018-11-26T00:36:28.255Z,1008.89
2018-11-26T00:37:28.323Z,1008.88
2018-11-26T00:38:28.461Z,1008.87
2018-11-26T00:39:31.373Z,1008.91
2018-11-26T00:40:28.273Z,1008.88
2018-11-26T00:41:28.277Z,1008.91
2018-11-26T00:42:28.289Z,1008.88
2018-11-26T00:43:28.400Z,1008.91
2018-11-26T00:44:29.005Z,1008.86
2018-11-26T00:45:28.689Z,1008.88
2018-11-26T00:46:28.515Z,1008.90
2018-11-26T00:47:28.386Z,1008.91
2018-11-26T00:48:28.379Z,1008.88
2018-11-26T00:49:28.353Z,1008.90
2018-11-26T00:50:28.954Z,1008.87
2018-11-26T00:51:28.690Z,1008.95
2018-11-26T00:52:29.386Z,1008.86
2018-11-26T00:53:28.306Z,1008.85
2018-11-26T00:54:28.335Z,1008.95
2018-11-26T00:55:28.404Z,1008.81
2018-11-26T00:56:28.440Z,1008.84
2018-11-26T00:57:28.394Z,1008.82
2018-11-26T00:58:28.474Z,1008.81
2018-11-26T00:59:28.542Z,1008.76
2018-11-26T01:00:28.426Z,1008.80
2018-11-26T01:01:28.466Z,1008.80
2018-11-26T01:02:28.470Z,1008.75
2018-11-26T01:03:28.703Z,1008.76
2018-11-26T01:04:28.377Z,1008.75
2018-11-26T01:05:28.378Z,1008.76
2018-11-26T01:06:28.366Z,1008.74
2018-11-26T01:07:28.424Z,1008.79
2018-11-26T01:08:28.468Z,1008.80
2018-11-26T01:09:28.354Z,1008.81
2018-11-26T01:10:28.434Z,1008.78
2018-11-26T01:11:28.418Z,1008.80
2018-11-26T01:12:28.616Z,1008.82
2018-11-26T01:13:28.445Z,1008.82
2018-11-26T01:14:28.387Z,1008.88
2018-11-26T01:15:29.433Z,1008.83
2018-11-26T01:16:28.437Z,1008.80
2018-11-26T01:17:28.367Z,1008.84
2018-11-26T01:18:28.471Z,1008.87
2018-11-26T01:19:28.964Z,1008.85
2018-11-26T01:20:28.516Z,1008.82
2018-11-26T01:21:28.481Z,1008.85
2018-11-26T01:22:28.690Z,1008.87
2018-11-26T01:23:28.493Z,1008.81
2018-11-26T01:24:28.465Z,1008.80
2018-11-26T01:25:28.597Z,1008.79
2018-11-26T01:26:28.426Z,1008.81
2018-11-26T01:27:29.277Z,1008.80
2018-11-26T01:28:28.442Z,1008.82
2018-11-26T01:29:28.611Z,1008.76
2018-11-26T01:30:28.410Z,1008.77
2018-11-26T01:31:28.458Z,1008.77
2018-11-26T01:32:28.420Z,1008.73
2018-11-26T01:33:28.683Z,1008.76
2018-11-26T01:34:28.534Z,1008.72
2018-11-26T01:35:28.603Z,1008.74
2018-11-26T01:36:28.506Z,1008.71
2018-11-26T01:37:28.439Z,1008.69
2018-11-26T01:38:28.557Z,1008.68
2018-11-26T01:39:28.595Z,1008.66
2018-11-26T01:40:28.540Z,1008.66
2018-11-26T01:41:28.805Z,1008.68
2018-11-26T01:42:28.602Z,1008.71
2018-11-26T01:43:28.602Z,1008.66
2018-11-26T01:44:28.670Z,1008.62
2018-11-26T01:45:28.583Z,1008.70
2018-11-26T01:46:28.517Z,1008.64
2018-11-26T01:47:28.529Z,1008.62
2018-11-26T01:48:28.473Z,1008.64
2018-11-26T01:49:28.534Z,1008.67
2018-11-26T01:50:28.504Z,1008.63
2018-11-26T01:51:28.607Z,1008.68
2018-11-26T01:52:28.491Z,1008.65
2018-11-26T01:53:28.581Z,1008.72
2018-11-26T01:54:28.603Z,1008.74
2018-11-26T01:55:28.485Z,1008.71
2018-11-26T01:56:28.482Z,1008.73
2018-11-26T01:57:28.494Z,1008.74
2018-11-26T01:58:28.834Z,1008.69
2018-11-26T01:59:28.776Z,1008.72
2018-11-26T02:00:28.806Z,1008.68
2018-11-26T02:01:28.521Z,1008.68
2018-11-26T02:02:28.651Z,1008.64
2018-11-26T02:03:28.767Z,1008.69
2018-11-26T02:04:28.755Z,1008.65
2018-11-26T02:05:28.774Z,1008.64
2018-11-26T02:06:28.658Z,1008.59
2018-11-26T02:07:28.590Z,1008.57
2018-11-26T02:08:28.586Z,1008.56
2018-11-26T02:09:28.651Z,1008.58
2018-11-26T02:10:29.187Z,1008.61
2018-11-26T02:11:28.837Z,1008.62
2018-11-26T02:12:28.757Z,1008.56
2018-11-26T02:13:28.695Z,1008.55
2018-11-26T02:14:28.737Z,1008.52
2018-11-26T02:15:28.865Z,1008.58
2018-11-26T02:16:28.627Z,1008.47
2018-11-26T02:17:28.651Z,1008.45
2018-11-26T02:18:28.951Z,1008.40
2018-11-26T02:19:28.849Z,1008.36
2018-11-26T02:20:29.512Z,1008.35
2018-11-26T02:21:29.471Z,1008.39
2018-11-26T02:22:29.355Z,1008.43
2018-11-26T02:23:28.939Z,1008.44
2018-11-26T02:24:28.858Z,1008.50
2018-11-26T02:25:28.715Z,1008.47
2018-11-26T02:26:28.588Z,1008.49
2018-11-26T02:27:29.334Z,1008.44
2018-11-26T02:28:28.914Z,1008.52
2018-11-26T02:29:28.817Z,1008.47
2018-11-26T02:30:28.728Z,1008.46
2018-11-26T02:31:28.626Z,1008.58
2018-11-26T02:32:28.591Z,1008.48
2018-11-26T02:33:28.872Z,1008.54
2018-11-26T02:34:28.699Z,1008.49
2018-11-26T02:35:28.656Z,1008.50
2018-11-26T02:36:28.605Z,1008.45
2018-11-26T02:37:28.611Z,1008.50
2018-11-26T02:38:28.647Z,1008.44
2018-11-26T02:39:28.641Z,1008.44
2018-11-26T02:40:28.616Z,1008.45
2018-11-26T02:41:28.761Z,1008.52
2018-11-26T02:42:28.621Z,1008.50
2018-11-26T02:43:28.620Z,1008.47
2018-11-26T02:44:28.628Z,1008.45
2018-11-26T02:45:29.036Z,1008.46
2018-11-26T02:46:29.856Z,1008.52
2018-11-26T02:47:28.897Z,1008.51
2018-11-26T02:48:29.583Z,1008.46
2018-11-26T02:49:28.654Z,1008.54
2018-11-26T02:50:28.979Z,1008.44
2018-11-26T02:51:28.652Z,1008.48
2018-11-26T02:52:28.692Z,1008.46
2018-11-26T02:53:28.656Z,1008.42
2018-11-26T02:54:28.753Z,1008.45
2018-11-26T02:55:28.666Z,1008.43
2018-11-26T02:56:28.987Z,1008.46
2018-11-26T02:57:29.050Z,1008.42
2018-11-26T02:58:28.972Z,1008.38
2018-11-26T02:59:28.907Z,1008.37
2018-11-26T03:00:28.801Z,1008.41
2018-11-26T03:01:28.816Z,1008.35
2018-11-26T03:02:28.774Z,1008.33
2018-11-26T03:03:28.784Z,1008.37
2018-11-26T03:04:29.172Z,1008.40
2018-11-26T03:05:28.993Z,1008.35
2018-11-26T03:06:28.730Z,1008.46
2018-11-26T03:07:28.763Z,1008.43
2018-11-26T03:08:28.701Z,1008.42
2018-11-26T03:09:28.741Z,1008.47
2018-11-26T03:10:28.712Z,1008.43
2018-11-26T03:11:28.715Z,1008.43
2018-11-26T03:12:28.710Z,1008.47
2018-11-26T03:13:28.766Z,1008.52
2018-11-26T03:14:28.881Z,1008.52
2018-11-26T03:15:28.886Z,1008.51
2018-11-26T03:16:28.870Z,1008.53
2018-11-26T03:17:28.871Z,1008.49
2018-11-26T03:18:29.072Z,1008.45
2018-11-26T03:19:29.088Z,1008.49
2018-11-26T03:20:29.207Z,1008.48
2018-11-26T03:21:29.474Z,1008.46
2018-11-26T03:22:28.955Z,1008.54
2018-11-26T03:23:29.167Z,1008.51
2018-11-26T03:24:28.799Z,1008.53
2018-11-26T03:25:28.799Z,1008.51
2018-11-26T03:26:28.959Z,1008.56
2018-11-26T03:27:29.163Z,1008.56
2018-11-26T03:28:28.824Z,1008.55
2018-11-26T03:29:28.995Z,1008.58
2018-11-26T03:30:28.996Z,1008.60
2018-11-26T03:31:28.907Z,1008.58
2018-11-26T03:32:28.859Z,1008.56
2018-11-26T03:33:28.946Z,1008.59
2018-11-26T03:34:28.915Z,1008.67
2018-11-26T03:35:28.788Z,1008.64
2018-11-26T03:36:28.781Z,1008.67
2018-11-26T03:37:28.785Z,1008.70
2018-11-26T03:38:28.788Z,1008.63
2018-11-26T03:39:28.851Z,1008.60
2018-11-26T03:40:28.800Z,1008.61
2018-11-26T03:41:28.814Z,1008.57
2018-11-26T03:42:28.837Z,1008.55
2018-11-26T03:43:28.876Z,1008.54
2018-11-26T03:44:28.867Z,1008.56
2018-11-26T03:45:28.831Z,1008.61
2018-11-26T03:46:28.817Z,1008.59
2018-11-26T03:47:28.827Z,1008.57
2018-11-26T03:48:28.832Z,1008.58
2018-11-26T03:49:28.819Z,1008.56
2018-11-26T03:50:28.828Z,1008.60
2018-11-26T03:51:29.068Z,1008.55
2018-11-26T03:52:29.186Z,1008.54
2018-11-26T03:53:28.850Z,1008.54
2018-11-26T03:54:28.840Z,1008.54
2018-11-26T03:55:29.641Z,1008.53
2018-11-26T03:56:28.863Z,1008.52
2018-11-26T03:57:28.856Z,1008.48
2018-11-26T03:58:28.859Z,1008.53
2018-11-26T03:59:29.065Z,1008.55
2018-11-26T04:00:28.855Z,1008.54
2018-11-26T04:01:28.885Z,1008.52
2018-11-26T04:02:29.041Z,1008.55
2018-11-26T04:03:28.860Z,1008.54
2018-11-26T04:04:28.862Z,1008.57
2018-11-26T04:05:28.865Z,1008.52
2018-11-26T04:06:28.910Z,1008.60
2018-11-26T04:07:28.981Z,1008.61
2018-11-26T04:08:29.250Z,1008.60
2018-11-26T04:09:29.043Z,1008.59
2018-11-26T04:10:28.911Z,1008.62
2018-11-26T04:11:28.905Z,1008.61
2018-11-26T04:12:28.907Z,1008.64
2018-11-26T04:13:28.920Z,1008.52
2018-11-26T04:14:28.920Z,1008.55
2018-11-26T04:15:28.913Z,1008.54
2018-11-26T04:16:28.928Z,1008.53
2018-11-26T04:17:28.902Z,1008.55
2018-11-26T04:18:28.908Z,1008.57
2018-11-26T04:19:28.962Z,1008.57
2018-11-26T04:20:28.926Z,1008.61
2018-11-26T04:21:28.956Z,1008.56
2018-11-26T04:22:28.933Z,1008.62
2018-11-26T04:23:28.945Z,1008.60
2018-11-26T04:24:28.942Z,1008.61
2018-11-26T04:25:28.970Z,1008.66
2018-11-26T04:26:28.962Z,1008.68
2018-11-26T04:27:28.948Z,1008.68
2018-11-26T04:28:28.952Z,1008.77
2018-11-26T04:29:28.948Z,1008.77
2018-11-26T04:30:29.087Z,1008.71
2018-11-26T04:31:29.018Z,1008.79
2018-11-26T04:32:28.964Z,1008.77
2018-11-26T04:33:29.001Z,1008.76
2018-11-26T04:34:28.955Z,1008.73
2018-11-26T04:35:28.955Z,1008.73
2018-11-26T04:36:28.988Z,1008.73
2018-11-26T04:37:29.018Z,1008.74
2018-11-26T04:38:28.974Z,1008.78
2018-11-26T04:39:28.980Z,1008.75
2018-11-26T04:40:28.991Z,1008.75
2018-11-26T04:41:28.989Z,1008.77
2018-11-26T04:42:29.012Z,1008.74
2018-11-26T04:43:29.006Z,1008.72
2018-11-26T04:44:29.016Z,1008.71
2018-11-26T04:45:28.996Z,1008.73
2018-11-26T04:46:29.000Z,1008.74
2018-11-26T04:47:29.055Z,1008.72
2018-11-26T04:48:29.011Z,1008.80
2018-11-26T04:49:29.010Z,1008.73
2018-11-26T04:50:29.009Z,1008.72
2018-11-26T04:51:29.013Z,1008.71
2018-11-26T04:52:29.031Z,1008.69
2018-11-26T04:53:29.043Z,1008.68
2018-11-26T04:55:29.062Z,1008.61
2018-11-26T04:56:29.086Z,1008.64
2018-11-26T04:57:29.048Z,1008.59
2018-11-26T04:58:29.171Z,1008.67
2018-11-26T04:59:29.068Z,1008.61
2018-11-26T05:00:29.040Z,1008.63
2018-11-26T05:01:29.132Z,1008.63
2018-11-26T05:02:29.135Z,1008.59
2018-11-26T05:03:29.046Z,1008.59
2018-11-26T05:04:29.049Z,1008.61
2018-11-26T05:05:29.115Z,1008.62
2018-11-26T05:06:29.066Z,1008.59
2018-11-26T05:07:29.066Z,1008.64
2018-11-26T05:08:29.126Z,1008.63
2018-11-26T05:09:29.095Z,1008.63
2018-11-26T05:10:29.081Z,1008.71
2018-11-26T05:11:29.175Z,1008.66
2018-11-26T05:12:29.141Z,1008.71
2018-11-26T05:13:29.116Z,1008.70
2018-11-26T05:14:29.080Z,1008.67
2018-11-26T05:15:29.116Z,1008.72
2018-11-26T05:16:29.090Z,1008.71
2018-11-26T05:17:29.095Z,1008.74
2018-11-26T05:18:29.152Z,1008.74
2018-11-26T05:19:29.105Z,1008.73
2018-11-26T05:20:29.114Z,1008.75
2018-11-26T05:21:29.122Z,1008.78
2018-11-26T05:22:29.121Z,1008.71
2018-11-26T05:23:29.129Z,1008.72
2018-11-26T05:24:29.141Z,1008.69
2018-11-26T05:25:29.147Z,1008.74
2018-11-26T05:26:29.137Z,1008.78
2018-11-26T05:27:29.140Z,1008.70
2018-11-26T05:28:29.133Z,1008.72
2018-11-26T05:29:29.180Z,1008.67
2018-11-26T05:30:29.176Z,1008.73
2018-11-26T05:31:29.145Z,1008.67
2018-11-26T05:32:29.142Z,1008.70
2018-11-26T05:33:29.155Z,1008.72
2018-11-26T05:34:29.157Z,1008.73
2018-11-26T05:35:29.217Z,1008.76
2018-11-26T05:36:29.221Z,1008.69
2018-11-26T05:37:29.185Z,1008.69
2018-11-26T05:38:29.172Z,1008.67
2018-11-26T05:39:29.178Z,1008.73
2018-11-26T05:40:29.188Z,1008.58
2018-11-26T05:41:29.191Z,1008.57
2018-11-26T05:42:29.223Z,1008.60
2018-11-26T05:43:29.183Z,1008.58
2018-11-26T05:44:29.291Z,1008.60
2018-11-26T05:45:29.195Z,1008.65
2018-11-26T05:46:29.198Z,1008.64
2018-11-26T05:47:29.238Z,1008.70
2018-11-26T05:48:29.196Z,1008.66
2018-11-26T05:49:29.208Z,1008.70
2018-11-26T05:50:29.216Z,1008.67
2018-11-26T05:51:29.222Z,1008.73
2018-11-26T05:52:29.218Z,1008.67
2018-11-26T05:53:29.277Z,1008.68
2018-11-26T05:54:29.236Z,1008.65
2018-11-26T05:55:29.242Z,1008.64
2018-11-26T05:56:29.234Z,1008.62
2018-11-26T05:57:29.257Z,1008.61
2018-11-26T05:58:29.247Z,1008.60
2018-11-26T05:59:29.266Z,1008.61
2018-11-26T06:00:29.240Z,1008.63
2018-11-26T06:01:29.789Z,1008.56
2018-11-26T06:02:29.274Z,1008.61
2018-11-26T06:03:29.261Z,1008.56
2018-11-26T06:04:29.262Z,1008.55
2018-11-26T06:05:29.247Z,1008.53
2018-11-26T06:06:29.259Z,1008.55
2018-11-26T06:07:29.335Z,1008.58
2018-11-26T06:08:29.266Z,1008.56
2018-11-26T06:09:29.288Z,1008.55
2018-11-26T06:10:29.370Z,1008.55
2018-11-26T06:11:29.280Z,1008.52
2018-11-26T06:12:29.314Z,1008.61
2018-11-26T06:13:29.299Z,1008.62
2018-11-26T06:14:29.330Z,1008.60
2018-11-26T06:15:29.279Z,1008.57
2018-11-26T06:16:29.286Z,1008.67
2018-11-26T06:17:29.305Z,1008.65
2018-11-26T06:18:29.302Z,1008.61
2018-11-26T06:19:29.314Z,1008.63
2018-11-26T06:20:29.810Z,1008.61
2018-11-26T06:21:29.356Z,1008.67
2018-11-26T06:22:29.335Z,1008.65
2018-11-26T06:23:29.340Z,1008.66
2018-11-26T06:24:29.327Z,1008.61
2018-11-26T06:25:29.327Z,1008.69
2018-11-26T06:26:29.372Z,1008.69
2018-11-26T06:27:29.350Z,1008.69
2018-11-26T06:28:29.335Z,1008.68
2018-11-26T06:29:29.358Z,1008.71
2018-11-26T06:30:29.399Z,1008.76
2018-11-26T06:31:29.350Z,1008.73
2018-11-26T06:32:29.381Z,1008.76
2018-11-26T06:33:29.375Z,1008.78
2018-11-26T06:34:29.341Z,1008.79
2018-11-26T06:35:29.344Z,1008.79
2018-11-26T06:36:29.390Z,1008.87
2018-11-26T06:37:29.356Z,1008.80
2018-11-26T06:38:29.374Z,1008.84
2018-11-26T06:39:29.389Z,1008.81
2018-11-26T06:40:29.447Z,1008.90
2018-11-26T06:41:29.385Z,1008.84
2018-11-26T06:42:29.392Z,1008.83
2018-11-26T06:43:29.384Z,1008.84
2018-11-26T06:44:29.386Z,1008.83
2018-11-26T06:45:29.426Z,1008.84
2018-11-26T06:46:29.422Z,1008.90
2018-11-26T06:47:29.388Z,1008.86
2018-11-26T06:48:29.484Z,1008.89
2018-11-26T06:49:29.401Z,1008.94
2018-11-26T06:50:29.403Z,1008.99
2018-11-26T06:51:29.402Z,1008.94
2018-11-26T06:52:29.427Z,1009.00
2018-11-26T06:53:29.423Z,1009.00
2018-11-26T06:54:29.469Z,1008.99
2018-11-26T06:55:29.426Z,1009.01
2018-11-26T06:56:29.427Z,1008.96
2018-11-26T06:57:29.438Z,1008.96
2018-11-26T06:58:29.508Z,1008.99
2018-11-26T06:59:30.006Z,1009.02
2018-11-26T07:00:29.451Z,1008.98
2018-11-26T07:01:29.431Z,1009.07
2018-11-26T07:02:29.441Z,1009.00
2018-11-26T07:03:29.449Z,1009.01
2018-11-26T07:04:29.471Z,1009.02
2018-11-26T07:05:29.509Z,1009.01
2018-11-26T07:06:29.514Z,1009.06
2018-11-26T07:07:29.454Z,1009.03
2018-11-26T07:08:29.453Z,1009.06
2018-11-26T07:09:29.471Z,1009.09
2018-11-26T07:10:29.479Z,1009.09
2018-11-26T07:11:29.508Z,1009.10
2018-11-26T07:12:29.495Z,1009.17
2018-11-26T07:13:29.509Z,1009.13
2018-11-26T07:14:29.510Z,1009.15
2018-11-26T07:15:29.532Z,1009.16
2018-11-26T07:16:29.482Z,1009.13
2018-11-26T07:17:29.525Z,1009.27
2018-11-26T07:18:29.496Z,1009.16
2018-11-26T07:19:29.495Z,1009.14
2018-11-26T07:20:29.561Z,1009.17
2018-11-26T07:21:29.638Z,1009.15
2018-11-26T07:22:29.666Z,1009.22
2018-11-26T07:23:30.185Z,1009.14
2018-11-26T07:24:29.555Z,1009.16
2018-11-26T07:25:29.535Z,1009.13
2018-11-26T07:26:29.854Z,1009.20
2018-11-26T07:27:29.610Z,1009.13
2018-11-26T07:28:29.717Z,1009.17
2018-11-26T07:29:29.564Z,1009.17
2018-11-26T07:30:32.663Z,1009.17
2018-11-26T07:31:29.677Z,1009.14
2018-11-26T07:32:29.528Z,1009.19
2018-11-26T07:33:29.665Z,1009.16
2018-11-26T07:34:29.565Z,1009.17
2018-11-26T07:35:29.558Z,1009.18
2018-11-26T07:36:29.603Z,1009.18
2018-11-26T07:37:29.567Z,1009.17
2018-11-26T07:38:29.562Z,1009.23
2018-11-26T07:39:29.584Z,1009.21
2018-11-26T07:40:29.577Z,1009.18
2018-11-26T07:41:29.564Z,1009.20
2018-11-26T07:42:29.951Z,1009.20
2018-11-26T07:43:29.607Z,1009.16
2018-11-26T07:44:29.584Z,1009.18
2018-11-26T07:45:29.584Z,1009.24
2018-11-26T07:46:29.575Z,1009.23
2018-11-26T07:47:29.611Z,1009.21
2018-11-26T07:48:29.609Z,1009.29
2018-11-26T07:49:29.588Z,1009.28
2018-11-26T07:50:29.594Z,1009.29
2018-11-26T07:51:29.719Z,1009.31
2018-11-26T07:52:29.610Z,1009.33
2018-11-26T07:53:29.881Z,1009.34
2018-11-26T07:54:29.725Z,1009.39
2018-11-26T07:55:29.628Z,1009.43
2018-11-26T07:56:29.644Z,1009.34
2018-11-26T07:57:29.620Z,1009.34
2018-11-26T07:58:29.640Z,1009.38
2018-11-26T07:59:29.664Z,1009.37
2018-11-26T08:00:29.649Z,1009.38
2018-11-26T08:01:29.682Z,1009.37
2018-11-26T08:02:29.637Z,1009.41
2018-11-26T08:03:29.695Z,1009.34
2018-11-26T08:04:29.645Z,1009.46
2018-11-26T08:05:29.644Z,1009.43
2018-11-26T08:06:29.753Z,1009.40
2018-11-26T08:07:29.671Z,1009.41
2018-11-26T08:08:29.703Z,1009.56
2018-11-26T08:09:29.710Z,1009.44
2018-11-26T08:10:29.671Z,1009.39
2018-11-26T08:11:29.686Z,1009.43
2018-11-26T08:12:29.689Z,1009.37
2018-11-26T08:13:29.676Z,1009.40
2018-11-26T08:14:29.706Z,1009.40
2018-11-26T08:15:29.758Z,1009.48
2018-11-26T08:16:29.689Z,1009.45
2018-11-26T08:17:29.710Z,1009.40
2018-11-26T08:18:29.700Z,1009.43
2018-11-26T08:19:29.691Z,1009.46
2018-11-26T08:20:29.693Z,1009.48
2018-11-26T08:21:29.749Z,1009.38
2018-11-26T08:22:29.718Z,1009.45
2018-11-26T08:23:29.711Z,1009.45
2018-11-26T08:24:29.722Z,1009.43
2018-11-26T08:25:29.771Z,1009.47
2018-11-26T08:26:29.757Z,1009.45
2018-11-26T08:27:29.737Z,1009.50
2018-11-26T08:28:29.733Z,1009.45
2018-11-26T08:29:29.731Z,1009.48
2018-11-26T08:30:29.737Z,1009.46
2018-11-26T08:31:29.763Z,1009.45
2018-11-26T08:32:34.026Z,1009.54
2018-11-26T08:33:29.758Z,1009.57
2018-11-26T08:34:29.748Z,1009.50
2018-11-26T08:35:29.802Z,1009.48
2018-11-26T08:36:29.753Z,1009.55
2018-11-26T08:37:29.762Z,1009.49
2018-11-26T08:38:29.810Z,1009.55
2018-11-26T08:39:29.759Z,1009.50
2018-11-26T08:40:29.774Z,1009.53
2018-11-26T08:41:29.771Z,1009.49
2018-11-26T08:42:29.790Z,1009.46
2018-11-26T08:43:29.779Z,1009.47
2018-11-26T08:44:29.828Z,1009.48
2018-11-26T08:45:29.829Z,1009.47
2018-11-26T08:46:29.801Z,1009.54
2018-11-26T08:47:29.816Z,1009.52
2018-11-26T08:48:29.792Z,1009.49
2018-11-26T08:49:29.833Z,1009.47
2018-11-26T08:50:29.857Z,1009.54
2018-11-26T08:51:29.805Z,1009.54
2018-11-26T08:52:29.889Z,1009.53
2018-11-26T08:53:29.832Z,1009.50
2018-11-26T08:54:29.829Z,1009.59
2018-11-26T08:55:29.848Z,1009.54
2018-11-26T08:56:29.825Z,1009.58
2018-11-26T08:57:29.834Z,1009.59
2018-11-26T08:58:29.859Z,1009.54
2018-11-26T08:59:29.841Z,1009.60
2018-11-26T09:00:29.835Z,1009.56
2018-11-26T09:01:29.871Z,1009.55
2018-11-26T09:02:29.869Z,1009.54
2018-11-26T09:03:29.840Z,1009.61
2018-11-26T09:04:29.859Z,1009.53
2018-11-26T09:05:29.849Z,1009.56
2018-11-26T09:06:29.893Z,1009.54
2018-11-26T09:07:29.864Z,1009.54
2018-11-26T09:08:29.964Z,1009.55
2018-11-26T09:09:32.972Z,1009.56
2018-11-26T09:10:29.872Z,1009.59
2018-11-26T09:11:29.880Z,1009.60
2018-11-26T09:12:30.390Z,1009.58
2018-11-26T09:13:29.921Z,1009.61
2018-11-26T09:14:29.896Z,1009.57
2018-11-26T09:15:29.886Z,1009.58
2018-11-26T09:16:29.898Z,1009.61
2018-11-26T09:17:29.969Z,1009.64
2018-11-26T09:18:29.908Z,1009.63
2018-11-26T09:19:29.904Z,1009.59
2018-11-26T09:20:29.914Z,1009.61
2018-11-26T09:21:29.912Z,1009.64
2018-11-26T09:22:29.934Z,1009.58
2018-11-26T09:23:30.010Z,1009.57
2018-11-26T09:24:29.913Z,1009.55
2018-11-26T09:25:29.923Z,1009.55
2018-11-26T09:26:29.936Z,1009.55
2018-11-26T09:27:29.936Z,1009.52
2018-11-26T09:28:30.038Z,1009.51
2018-11-26T09:29:29.960Z,1009.54
2018-11-26T09:30:29.967Z,1009.51
2018-11-26T09:31:29.963Z,1009.55
2018-11-26T09:32:30.007Z,1009.52
2018-11-26T09:33:29.951Z,1009.51
2018-11-26T09:34:29.975Z,1009.58
2018-11-26T09:35:29.964Z,1009.55
2018-11-26T09:36:30.052Z,1009.52
2018-11-26T09:37:29.977Z,1009.52
2018-11-26T09:38:30.021Z,1009.50
2018-11-26T09:39:30.003Z,1009.47
2018-11-26T09:40:29.981Z,1009.49
2018-11-26T09:41:29.985Z,1009.47
2018-11-26T09:42:30.043Z,1009.47
2018-11-26T09:43:29.991Z,1009.50
2018-11-26T09:44:29.997Z,1009.45
2018-11-26T09:45:30.010Z,1009.49
2018-11-26T09:46:30.010Z,1009.53
2018-11-26T09:47:30.017Z,1009.51
2018-11-26T09:48:30.053Z,1009.44
2018-11-26T09:49:30.012Z,1009.44
2018-11-26T09:50:30.041Z,1009.44
2018-11-26T09:51:30.027Z,1009.50
2018-11-26T09:52:30.019Z,1009.41
2018-11-26T09:53:30.028Z,1009.41
2018-11-26T09:54:30.106Z,1009.39
2018-11-26T09:55:30.038Z,1009.52
2018-11-26T09:56:30.046Z,1009.39
2018-11-26T09:57:30.061Z,1009.38
2018-11-26T09:58:30.067Z,1009.44
2018-11-26T09:59:30.050Z,1009.37
2018-11-26T10:00:30.085Z,1009.36
2018-11-26T10:01:30.090Z,1009.29
2018-11-26T10:02:30.075Z,1009.35
2018-11-26T10:03:30.075Z,1009.38
2018-11-26T10:04:30.099Z,1009.32
2018-11-26T10:05:30.138Z,1009.35
2018-11-26T10:06:30.099Z,1009.34
2018-11-26T10:07:30.085Z,1009.32
2018-11-26T10:08:30.126Z,1009.31
2018-11-26T10:09:30.126Z,1009.33
2018-11-26T10:10:30.143Z,1009.26
2018-11-26T10:11:33.679Z,1009.32
2018-11-26T10:12:30.361Z,1009.40
2018-11-26T10:13:30.831Z,1009.34
2018-11-26T10:14:30.204Z,1009.30
2018-11-26T10:15:30.485Z,1009.35
2018-11-26T10:16:30.803Z,1009.33
2018-11-26T10:17:30.171Z,1009.33
2018-11-26T10:18:30.141Z,1009.33
2018-11-26T10:19:30.128Z,1009.36
2018-11-26T10:20:30.126Z,1009.35
2018-11-26T10:21:30.168Z,1009.40
2018-11-26T10:22:30.192Z,1009.37
2018-11-26T10:23:30.288Z,1009.43
2018-11-26T10:24:30.328Z,1009.38
2018-11-26T10:25:30.171Z,1009.36
2018-11-26T10:26:30.151Z,1009.41
2018-11-26T10:27:30.161Z,1009.56
2018-11-26T10:28:30.171Z,1009.50
2018-11-26T10:29:30.171Z,1009.47
2018-11-26T10:30:30.298Z,1009.53
2018-11-26T10:31:30.190Z,1009.48
2018-11-26T10:32:30.191Z,1009.50
2018-11-26T10:33:30.184Z,1009.48
2018-11-26T10:34:30.192Z,1009.46
2018-11-26T10:35:30.218Z,1009.46
2018-11-26T10:36:30.221Z,1009.57
2018-11-26T10:37:30.192Z,1009.49
2018-11-26T10:38:30.243Z,1009.45
2018-11-26T10:39:30.216Z,1009.49
2018-11-26T10:40:30.241Z,1009.47
2018-11-26T10:41:30.217Z,1009.44
2018-11-26T10:42:30.226Z,1009.42
2018-11-26T10:43:30.246Z,1009.47
2018-11-26T10:44:30.257Z,1009.37
2018-11-26T10:45:30.260Z,1009.43
2018-11-26T10:46:30.267Z,1009.38
2018-11-26T10:47:30.254Z,1009.41
2018-11-26T10:48:30.332Z,1009.40
2018-11-26T10:49:30.255Z,1009.40
2018-11-26T10:50:30.265Z,1009.46
2018-11-26T10:51:30.284Z,1009.44
2018-11-26T10:52:30.278Z,1009.40
2018-11-26T10:53:30.261Z,1009.47
2018-11-26T10:54:30.283Z,1009.39
2018-11-26T10:55:30.263Z,1009.35
2018-11-26T10:56:30.271Z,1009.37
2018-11-26T10:57:30.318Z,1009.34
2018-11-26T10:58:30.281Z,1009.32
2018-11-26T10:59:30.284Z,1009.39
2018-11-26T11:00:30.285Z,1009.40
2018-11-26T11:01:30.299Z,1009.40
2018-11-26T11:02:30.320Z,1009.38
2018-11-26T11:03:30.314Z,1009.31
2018-11-26T11:04:30.296Z,1009.32
2018-11-26T11:05:30.306Z,1009.35
2018-11-26T11:06:30.460Z,1009.37
2018-11-26T11:07:30.317Z,1009.35
2018-11-26T11:08:30.354Z,1009.39
2018-11-26T11:09:30.335Z,1009.42
2018-11-26T11:10:30.328Z,1009.43
2018-11-26T11:11:30.390Z,1009.39
2018-11-26T11:12:30.335Z,1009.43
2018-11-26T11:13:30.364Z,1009.44
2018-11-26T11:14:30.353Z,1009.40
2018-11-26T11:15:30.364Z,1009.41
2018-11-26T11:16:30.529Z,1009.50
2018-11-26T11:17:30.350Z,1009.60
2018-11-26T11:18:30.394Z,1009.51
2018-11-26T11:19:30.359Z,1009.51
2018-11-26T11:20:30.363Z,1009.45
2018-11-26T11:21:30.363Z,1009.41
2018-11-26T11:22:30.372Z,1009.45
2018-11-26T11:23:30.405Z,1009.46
2018-11-26T11:24:30.433Z,1009.41
2018-11-26T11:25:30.390Z,1009.41
2018-11-26T11:26:30.389Z,1009.48
2018-11-26T11:27:30.398Z,1009.48
2018-11-26T11:28:30.434Z,1009.56
2018-11-26T11:29:30.418Z,1009.55
2018-11-26T11:30:30.440Z,1009.48
2018-11-26T11:31:30.413Z,1009.46
2018-11-26T11:32:30.477Z,1009.44
2018-11-26T11:33:30.438Z,1009.34
2018-11-26T11:34:30.448Z,1009.46
2018-11-26T11:35:30.426Z,1009.51
2018-11-26T11:36:30.433Z,1009.43
2018-11-26T11:37:30.443Z,1009.48
2018-11-26T11:38:30.433Z,1009.46
2018-11-26T11:39:30.488Z,1009.40
2018-11-26T11:40:30.435Z,1009.39
2018-11-26T11:41:34.305Z,1009.41
2018-11-26T11:42:30.447Z,1009.47
2018-11-26T11:43:30.474Z,1009.33
2018-11-26T11:44:30.450Z,1009.54
2018-11-26T11:45:30.533Z,1009.37
2018-11-26T11:46:30.463Z,1009.42
2018-11-26T11:47:30.475Z,1009.39
2018-11-26T11:48:30.535Z,1009.28
2018-11-26T11:49:30.485Z,1009.31
2018-11-26T11:50:30.501Z,1009.33
2018-11-26T11:51:30.510Z,1009.32
2018-11-26T11:52:30.509Z,1009.34
2018-11-26T11:53:30.512Z,1009.34
2018-11-26T11:54:30.494Z,1009.37
2018-11-26T11:55:30.499Z,1009.43
2018-11-26T11:56:30.502Z,1009.46
2018-11-26T11:57:30.526Z,1009.39
2018-11-26T11:58:30.540Z,1009.40
2018-11-26T11:59:30.551Z,1009.31
2018-11-26T12:00:30.517Z,1009.40
2018-11-26T12:01:30.528Z,1009.64
2018-11-26T12:02:30.528Z,1009.37
2018-11-26T12:03:30.531Z,1009.41
2018-11-26T12:04:30.625Z,1009.47
2018-11-26T12:05:30.541Z,1009.34
2018-11-26T12:06:30.545Z,1009.38